Time;durP1;ratioP1;P1;durP2;ratioP2;P2;SDS_P1;SDS_P2;PMS_P1;PMS_P2;Temp;Humidity;BMP_temperature;BMP_pressure;BME280_temperature;BME280_humidity;BME280_pressure;Samples;Min_cycle;Max_cycle;Signal;HPM_P1;HPM_P2
2022/06/12 00:01:19;;;;;;;3.42;0.60;;;20.40;65.70;;;;;;5094591;28;20039;-77
2022/06/12 00:03:45;;;;;;;2.00;0.45;;;20.40;65.80;;;;;;5094507;28;20107;-77
2022/06/12 00:06:10;;;;;;;2.45;0.50;;;20.40;65.90;;;;;;5094791;28;20078;-77
2022/06/12 00:08:39;;;;;;;3.05;0.38;;;20.40;65.90;;;;;;5094383;28;20036;-77
2022/06/12 00:11:07;;;;;;;2.42;0.40;;;20.40;66.00;;;;;;5094322;28;20047;-77
2022/06/12 00:13:36;;;;;;;2.60;0.55;;;20.30;66.00;;;;;;5094364;28;20471;-77
2022/06/12 00:16:04;;;;;;;3.67;0.55;;;20.30;66.10;;;;;;5094625;28;20382;-77
2022/06/12 00:18:30;;;;;;;3.88;0.50;;;20.30;66.30;;;;;;5094489;28;20114;-77
2022/06/12 00:21:12;;;;;;;1.88;0.40;;;20.30;66.50;;;;;;5094524;28;20099;-77
2022/06/12 00:23:56;;;;;;;3.35;0.35;;;20.20;66.70;;;;;;5094255;28;20028;-77
2022/06/12 00:26:30;;;;;;;2.03;0.40;;;20.20;66.90;;;;;;5094064;28;20495;-77
2022/06/12 00:29:04;;;;;;;2.47;0.40;;;20.20;67.00;;;;;;5094116;28;20055;-77
2022/06/12 00:31:31;;;;;;;3.20;0.40;;;20.20;67.10;;;;;;5094133;28;20063;-77
2022/06/12 00:33:58;;;;;;;3.70;0.40;;;20.20;67.20;;;;;;5093972;28;20032;-77
2022/06/12 00:36:23;;;;;;;2.70;0.70;;;20.20;67.30;;;;;;5093892;28;20470;-77
2022/06/12 00:38:49;;;;;;;3.33;0.40;;;20.10;67.50;;;;;;5094219;28;20059;-77
2022/06/12 00:41:15;;;;;;;3.15;0.47;;;20.10;67.60;;;;;;5093542;28;20016;-77
2022/06/12 00:43:40;;;;;;;2.65;0.40;;;20.00;67.60;;;;;;5093857;28;20020;-77
2022/06/12 00:46:06;;;;;;;2.45;0.60;;;20.00;67.60;;;;;;5093792;28;20024;-77
2022/06/12 00:48:35;;;;;;;1.83;0.30;;;20.10;67.80;;;;;;5093987;28;20042;-77
2022/06/12 00:51:10;;;;;;;2.92;0.40;;;20.00;67.80;;;;;;5093529;28;20076;-77
2022/06/12 00:53:52;;;;;;;3.35;0.55;;;20.00;67.90;;;;;;5094094;28;20380;-77
2022/06/12 00:56:32;;;;;;;2.65;0.40;;;19.90;68.00;;;;;;5093955;28;20111;-77
2022/06/12 00:59:04;;;;;;;4.60;0.50;;;19.90;68.00;;;;;;5093407;28;20476;-77
2022/06/12 01:01:34;;;;;;;3.35;0.63;;;19.90;68.20;;;;;;5093974;28;20036;-77
2022/06/12 01:06:47;;;;;;;2.75;0.40;;;19.80;68.20;;;;;;5093905;28;20076;-77
2022/06/12 01:09:17;;;;;;;3.42;0.50;;;19.80;68.40;;;;;;5093723;28;20036;-77
2022/06/12 01:11:46;;;;;;;2.95;0.70;;;19.70;68.50;;;;;;5093156;28;20020;-77
2022/06/12 01:14:15;;;;;;;3.45;0.55;;;19.70;68.70;;;;;;5093687;28;20030;-77
2022/06/12 01:16:45;;;;;;;3.22;0.60;;;19.70;68.90;;;;;;5093595;28;20020;-77
2022/06/12 01:19:32;;;;;;;5.05;0.73;;;19.70;69.00;;;;;;5093349;28;20024;-76
2022/06/12 01:22:35;;;;;;;2.70;0.45;;;19.70;69.30;;;;;;5093548;28;20024;-76
2022/06/12 01:25:36;;;;;;;2.83;0.52;;;19.70;69.20;;;;;;5093185;28;20066;-76
2022/06/12 01:28:32;;;;;;;2.70;0.40;;;19.80;69.10;;;;;;5093564;28;20078;-76
2022/06/12 01:31:26;;;;;;;3.72;0.55;;;19.70;69.00;;;;;;5093420;28;20086;-76
2022/06/12 01:34:03;;;;;;;2.72;0.70;;;19.70;69.10;;;;;;5093263;28;20032;-76
2022/06/12 01:36:42;;;;;;;2.90;0.70;;;19.70;69.10;;;;;;5093327;28;20044;-76
2022/06/12 01:39:19;;;;;;;6.60;0.80;;;19.70;69.30;;;;;;5093190;28;20020;-77
2022/06/12 01:41:50;;;;;;;7.05;0.85;;;19.70;69.30;;;;;;5093126;28;20544;-76
2022/06/12 01:44:34;;;;;;;7.07;0.88;;;19.70;69.50;;;;;;5093237;28;20052;-76
2022/06/12 01:47:10;;;;;;;3.92;0.80;;;19.50;70.00;;;;;;5093107;28;20108;-77
2022/06/12 01:49:41;;;;;;;3.97;0.90;;;19.30;70.40;;;;;;5096901;28;20089;-77
2022/06/12 01:52:25;;;;;;;7.70;1.02;;;19.20;70.70;;;;;;5097356;28;20059;-77
2022/06/12 01:55:12;;;;;;;7.00;1.13;;;19.20;71.10;;;;;;5097280;28;20081;-77
2022/06/12 01:57:45;;;;;;;4.82;0.77;;;19.10;71.00;;;;;;5097022;28;20024;-76
2022/06/12 02:00:16;;;;;;;3.45;0.77;;;19.20;71.00;;;;;;5097358;28;20047;-76
2022/06/12 02:02:58;;;;;;;5.07;0.88;;;19.20;71.00;;;;;;5097096;28;20032;-76
2022/06/12 02:05:38;;;;;;;3.92;0.63;;;19.30;71.00;;;;;;5097001;28;20024;-76
2022/06/12 02:08:25;;;;;;;6.95;0.85;;;19.30;71.00;;;;;;5097111;28;20063;-76
2022/06/12 02:14:07;;;;;;;7.90;1.02;;;19.30;71.30;;;;;;5096947;28;20062;-76
2022/06/12 02:16:41;;;;;;;6.65;0.93;;;19.30;71.40;;;;;;5097031;28;20074;-77
2022/06/12 02:19:29;;;;;;;4.90;0.90;;;19.30;72.10;;;;;;5096410;28;20047;-77
2022/06/12 02:22:00;;;;;;;2.97;0.63;;;19.30;72.40;;;;;;5096655;28;20529;-76
2022/06/12 02:24:34;;;;;;;7.15;1.00;;;19.30;71.90;;;;;;5096910;28;20023;-76
2022/06/12 02:27:10;;;;;;;5.15;1.10;;;19.30;72.00;;;;;;5096766;28;20036;-77
2022/06/12 02:29:45;;;;;;;3.95;0.77;;;19.30;72.00;;;;;;5096441;28;20032;-77
2022/06/12 02:32:20;;;;;;;7.13;0.75;;;19.30;72.10;;;;;;5096621;28;20116;-77
2022/06/12 02:34:52;;;;;;;4.43;0.98;;;19.30;72.20;;;;;;5096695;28;20016;-77
2022/06/12 02:37:23;;;;;;;2.63;0.88;;;19.30;72.20;;;;;;5096305;28;20486;-77
2022/06/12 02:39:54;;;;;;;5.28;1.23;;;19.30;72.30;;;;;;5096114;28;20077;-77
2022/06/12 02:42:29;;;;;;;4.40;0.85;;;19.20;72.50;;;;;;5096381;28;20027;-76
2022/06/12 02:45:10;;;;;;;6.47;1.10;;;19.20;72.60;;;;;;5096363;28;20163;-76
2022/06/12 02:47:39;;;;;;;5.32;1.00;;;19.20;72.70;;;;;;5096204;28;20028;-77
2022/06/12 02:50:07;;;;;;;4.28;0.90;;;19.20;72.70;;;;;;5096348;28;20032;-77
2022/06/12 02:52:36;;;;;;;4.95;1.10;;;19.10;72.80;;;;;;5095631;28;20020;-77
2022/06/12 02:55:29;;;;;;;4.13;0.80;;;19.10;73.00;;;;;;5096081;28;20032;-77
2022/06/12 02:57:55;;;;;;;;;;;19.10;73.20;;;;;;5096489;28;20024;-77
2022/06/12 03:00:41;;;;;;;6.63;1.00;;;19.10;73.30;;;;;;5094833;28;19950;-77
2022/06/12 03:03:28;;;;;;;6.50;1.00;;;19.10;73.40;;;;;;5095501;28;20028;-77
2022/06/12 03:05:57;;;;;;;4.90;0.93;;;19.00;73.40;;;;;;5096035;28;20027;-76
2022/06/12 03:08:28;;;;;;;5.65;1.00;;;19.00;73.60;;;;;;5095857;28;20555;-77
2022/06/12 03:10:59;;;;;;;6.97;0.90;;;19.00;73.80;;;;;;5095764;28;20024;-77
2022/06/12 03:13:27;;;;;;;5.63;1.63;;;18.90;74.20;;;;;;5095552;28;20073;-77
2022/06/12 03:16:01;;;;;;;7.82;1.10;;;18.90;74.70;;;;;;5095607;28;20020;-77
2022/06/12 03:18:33;;;;;;;5.82;1.10;;;18.90;74.80;;;;;;5095447;28;20386;-77
2022/06/12 03:21:14;;;;;;;4.43;0.90;;;18.90;74.90;;;;;;5095423;28;20471;-77
2022/06/12 03:24:07;;;;;;;6.57;1.30;;;18.90;75.00;;;;;;5095610;28;20082;-76
2022/06/12 03:26:45;;;;;;;5.97;0.80;;;18.90;75.00;;;;;;5095391;28;20028;-77
2022/06/12 03:29:35;;;;;;;7.38;1.77;;;18.90;75.10;;;;;;5095209;28;20032;-76
2022/06/12 03:32:08;;;;;;;6.10;1.10;;;18.80;75.40;;;;;;5095227;28;20024;-77
2022/06/12 03:34:39;;;;;;;;;;;18.90;75.50;;;;;;5095431;28;20016;-76
2022/06/12 03:37:11;;;;;;;3.17;0.52;;;18.90;75.40;;;;;;5095382;28;19955;-76
2022/06/12 03:39:51;;;;;;;4.88;0.90;;;18.90;75.30;;;;;;5095158;28;20465;-77
2022/06/12 03:42:32;;;;;;;6.20;1.15;;;18.90;75.20;;;;;;5095371;28;20383;-76
2022/06/12 03:45:01;;;;;;;6.22;0.98;;;18.90;75.40;;;;;;5094875;28;20051;-77
2022/06/12 03:47:30;;;;;;;6.25;1.17;;;18.90;75.40;;;;;;5094686;28;20490;-77
2022/06/12 03:50:15;;;;;;;6.03;1.02;;;18.80;75.40;;;;;;5094840;28;20374;-77
2022/06/12 03:52:43;;;;;;;6.68;1.23;;;18.80;75.70;;;;;;5094829;28;20024;-77
2022/06/12 03:57:50;;;;;;;7.90;1.27;;;18.80;75.70;;;;;;5094848;28;20032;-77
2022/06/12 03:58:17;;;;;;;7.15;1.20;;;18.80;75.90;;;;;;5094403;28;20031;-76
2022/06/12 04:00:46;;;;;;;14.77;2.05;;;18.70;76.40;;;;;;5094749;28;20020;-76
2022/06/12 04:03:30;;;;;;;8.60;1.67;;;18.60;76.80;;;;;;5094590;28;20020;-76
2022/06/12 04:06:03;;;;;;;7.40;1.35;;;18.50;77.00;;;;;;5094692;28;20016;-77
2022/06/12 04:08:39;;;;;;;9.55;1.80;;;18.50;77.40;;;;;;5094791;28;20028;-77
2022/06/12 04:11:10;;;;;;;9.90;1.35;;;18.40;77.80;;;;;;5094414;28;20036;-77
2022/06/12 04:13:38;;;;;;;9.18;1.75;;;18.30;78.00;;;;;;5094445;28;20028;-75
2022/06/12 04:16:24;;;;;;;6.35;1.08;;;18.30;78.30;;;;;;5094294;28;20028;-75
2022/06/12 04:18:50;;;;;;;10.05;1.48;;;18.30;78.60;;;;;;5094253;28;20024;-76
2022/06/12 04:21:25;;;;;;;8.57;1.75;;;18.30;78.70;;;;;;5094393;28;20028;-75
2022/06/12 04:24:13;;;;;;;8.30;1.90;;;18.30;79.00;;;;;;5094303;28;20020;-76
2022/06/12 04:26:41;;;;;;;10.38;1.67;;;18.10;79.60;;;;;;5094408;28;20024;-76
2022/06/12 04:29:13;;;;;;;8.90;1.65;;;18.10;79.50;;;;;;5094107;28;20360;-75
2022/06/12 04:31:44;;;;;;;7.55;1.50;;;18.20;79.70;;;;;;5094011;28;20020;-76
2022/06/12 04:34:27;;;;;;;12.63;2.58;;;18.10;79.80;;;;;;5094047;28;20050;-76
2022/06/12 04:36:59;;;;;;;13.35;1.92;;;18.10;80.10;;;;;;5094205;28;20077;-76
2022/06/12 04:39:27;;;;;;;;;;;18.00;80.90;;;;;;5094671;28;20055;-76
2022/06/12 04:41:53;;;;;;;6.72;1.52;;;18.00;81.00;;;;;;5093604;28;19904;-76
2022/06/12 04:44:20;;;;;;;11.90;2.33;;;17.90;80.90;;;;;;5093741;28;20384;-76
2022/06/12 04:46:48;;;;;;;8.48;2.10;;;17.90;81.70;;;;;;5093812;28;20032;-76
2022/06/12 04:49:17;;;;;;;10.43;2.22;;;17.90;81.30;;;;;;5093909;28;20032;-76
2022/06/12 04:51:45;;;;;;;12.02;2.03;;;17.80;81.60;;;;;;5093981;28;20044;-76
2022/06/12 04:54:11;;;;;;;9.40;2.70;;;17.80;82.20;;;;;;5093746;28;20107;-76
2022/06/12 04:56:38;;;;;;;14.07;2.47;;;17.70;82.60;;;;;;5093750;28;20047;-76
2022/06/12 04:59:05;;;;;;;6.32;1.80;;;17.60;83.10;;;;;;5093781;28;20024;-76
2022/06/12 05:01:32;;;;;;;6.55;1.85;;;17.50;83.80;;;;;;5093612;28;20024;-76
2022/06/12 05:03:59;;;;;;;12.95;2.78;;;17.40;84.30;;;;;;5093262;28;20028;-76
2022/06/12 05:06:26;;;;;;;11.82;2.22;;;17.40;84.50;;;;;;5093414;28;20118;-76
2022/06/12 05:08:52;;;;;;;13.98;2.33;;;17.40;85.20;;;;;;5093398;28;20107;-76
2022/06/12 05:11:19;;;;;;;9.38;2.35;;;17.30;85.70;;;;;;5093320;28;20468;-76
2022/06/12 05:13:44;;;;;;;10.93;2.72;;;17.20;86.20;;;;;;5093500;28;20035;-76
2022/06/12 05:16:42;;;;;;;15.85;2.63;;;17.20;87.00;;;;;;5093357;28;20031;-76
2022/06/12 05:19:12;;;;;;;9.45;2.38;;;17.10;87.50;;;;;;5093698;28;20020;-76
2022/06/12 05:21:38;;;;;;;10.43;2.20;;;17.00;88.40;;;;;;5093711;28;20027;-76
2022/06/12 05:24:04;;;;;;;11.40;2.50;;;17.00;89.10;;;;;;5092503;28;20390;-76
2022/06/12 05:26:33;;;;;;;8.82;2.17;;;16.90;90.00;;;;;;5093605;28;20414;-76
2022/06/12 05:29:00;;;;;;;10.82;3.05;;;16.90;90.30;;;;;;5093464;28;20165;-76
2022/06/12 05:31:25;;;;;;;10.57;2.38;;;16.90;90.60;;;;;;5093624;28;20532;-76
2022/06/12 05:33:53;;;;;;;19.50;2.75;;;17.00;90.90;;;;;;5093176;28;20129;-76
2022/06/12 05:36:20;;;;;;;13.82;2.80;;;17.00;91.30;;;;;;5093594;28;20032;-76
2022/06/12 05:38:46;;;;;;;14.85;3.22;;;17.10;91.30;;;;;;5093063;28;20024;-76
2022/06/12 05:41:13;;;;;;;14.50;3.35;;;17.10;91.70;;;;;;5093150;28;20103;-76
2022/06/12 05:43:40;;;;;;;12.07;3.30;;;17.10;91.80;;;;;;5093158;28;20024;-76
2022/06/12 05:46:12;;;;;;;10.32;2.20;;;17.20;92.20;;;;;;5093571;28;20036;-76
2022/06/12 05:48:39;;;;;;;10.95;2.97;;;17.10;92.20;;;;;;5093364;28;20047;-76
2022/06/12 05:51:05;;;;;;;11.93;3.00;;;17.20;92.50;;;;;;5093256;28;20020;-76
2022/06/12 05:53:33;;;;;;;11.75;2.83;;;17.20;92.60;;;;;;5092994;28;20502;-76
2022/06/12 05:56:00;;;;;;;17.65;3.33;;;17.30;92.80;;;;;;5093453;28;20077;-76
2022/06/12 05:58:28;;;;;;;10.82;2.50;;;17.30;93.30;;;;;;5093345;28;20030;-76
2022/06/12 06:00:54;;;;;;;18.20;3.17;;;17.30;93.20;;;;;;5093083;28;20021;-76
2022/06/12 06:03:20;;;;;;;12.80;2.53;;;17.50;93.40;;;;;;5093068;28;20431;-77
2022/06/12 06:05:48;;;;;;;12.27;2.90;;;17.50;93.40;;;;;;5093057;28;20016;-76
2022/06/12 06:08:15;;;;;;;19.30;2.97;;;17.50;93.50;;;;;;5092718;28;20495;-76
2022/06/12 06:10:41;;;;;;;17.52;3.20;;;17.60;93.60;;;;;;5092909;28;20032;-76
2022/06/12 06:13:07;;;;;;;18.85;3.47;;;17.70;93.80;;;;;;5093249;28;20029;-76
2022/06/12 06:15:33;;;;;;;16.83;4.13;;;17.80;93.90;;;;;;5092718;28;20047;-76
2022/06/12 06:17:59;;;;;;;14.55;3.40;;;17.80;94.20;;;;;;5092659;28;20051;-76
2022/06/12 06:20:28;;;;;;;16.00;3.60;;;17.80;94.10;;;;;;5093069;28;20054;-77
2022/06/12 06:22:54;;;;;;;18.75;4.00;;;17.80;94.20;;;;;;5092765;28;20020;-77
2022/06/12 06:25:22;;;;;;;18.67;3.80;;;17.80;94.40;;;;;;5092748;28;20031;-76
2022/06/12 06:27:49;;;;;;;19.65;4.53;;;17.80;94.50;;;;;;5092628;28;20483;-77
2022/06/12 06:30:15;;;;;;;17.77;3.80;;;17.90;94.70;;;;;;5092825;28;20368;-76
2022/06/12 06:32:41;;;;;;;15.45;3.15;;;18.00;94.50;;;;;;5092640;28;20016;-76
2022/06/12 06:35:08;;;;;;;17.23;3.67;;;18.10;94.60;;;;;;5095355;28;20024;-76
2022/06/12 06:37:34;;;;;;;17.50;3.97;;;18.10;94.30;;;;;;5095881;28;20024;-76
2022/06/12 06:39:59;;;;;;;17.80;3.40;;;18.20;94.40;;;;;;5096541;28;20097;-76
2022/06/12 06:42:25;;;;;;;17.70;4.18;;;18.30;94.50;;;;;;5096490;28;20032;-76
2022/06/12 06:47:36;;;;;;;18.65;4.47;;;18.40;94.20;;;;;;5096469;28;20498;-77
2022/06/12 06:50:04;;;;;;;16.48;3.72;;;18.40;94.20;;;;;;5096002;28;20028;-77
2022/06/12 06:52:30;;;;;;;22.13;4.35;;;18.50;94.00;;;;;;5095994;28;20020;-77
2022/06/12 06:54:56;;;;;;;15.35;3.50;;;18.50;94.10;;;;;;5096021;28;20327;-76
2022/06/12 06:57:21;;;;;;;15.13;3.85;;;18.60;94.10;;;;;;5096034;28;20430;-76
2022/06/12 06:59:47;;;;;;;15.65;3.53;;;18.60;93.70;;;;;;5095779;28;20459;-76
2022/06/12 07:02:13;;;;;;;13.57;3.53;;;18.70;93.60;;;;;;5095760;28;20043;-77
2022/06/12 07:04:39;;;;;;;17.60;4.38;;;18.80;93.70;;;;;;5095673;28;20077;-77
2022/06/12 07:07:05;;;;;;;17.77;4.00;;;18.80;93.60;;;;;;5095870;28;20026;-77
2022/06/12 07:09:31;;;;;;;19.48;4.35;;;18.90;93.40;;;;;;5095767;28;20032;-77
2022/06/12 07:11:57;;;;;;;19.92;4.00;;;18.90;93.30;;;;;;5095773;28;20024;-77
2022/06/12 07:14:24;;;;;;;14.32;3.38;;;19.00;93.50;;;;;;5095409;28;20024;-77
2022/06/12 07:16:49;;;;;;;15.60;3.47;;;19.00;93.30;;;;;;5095569;28;20478;-76
2022/06/12 07:19:15;;;;;;;19.00;3.95;;;19.10;93.30;;;;;;5095434;28;20020;-77
2022/06/12 07:21:41;;;;;;;15.30;3.80;;;19.20;93.30;;;;;;5095642;28;20429;-77
2022/06/12 07:24:07;;;;;;;14.40;3.67;;;19.30;93.40;;;;;;5095683;28;20054;-76
2022/06/12 07:26:37;;;;;;;17.63;4.10;;;19.40;93.30;;;;;;5095216;28;20020;-76
2022/06/12 07:29:04;;;;;;;13.55;2.80;;;19.50;93.30;;;;;;5095383;28;20040;-77
2022/06/12 07:31:31;;;;;;;13.18;3.25;;;19.70;93.20;;;;;;5095254;28;20101;-76
2022/06/12 07:33:57;;;;;;;15.13;3.88;;;19.80;92.90;;;;;;5095152;28;20157;-76
2022/06/12 07:36:24;;;;;;;16.73;3.38;;;19.90;92.50;;;;;;5095448;28;20024;-76
2022/06/12 07:38:49;;;;;;;17.17;2.95;;;19.90;92.00;;;;;;5095203;28;20028;-77
2022/06/12 07:41:17;;;;;;;16.50;3.08;;;20.00;91.70;;;;;;5094990;28;20035;-76
2022/06/12 07:43:44;;;;;;;14.52;2.88;;;19.90;91.80;;;;;;5094835;28;20040;-76
2022/06/12 07:46:12;;;;;;;15.98;2.80;;;20.00;91.60;;;;;;5094056;28;20463;-76
2022/06/12 07:48:39;;;;;;;14.82;3.10;;;20.10;91.50;;;;;;5094775;28;20036;-77
2022/06/12 07:51:07;;;;;;;13.70;2.65;;;20.10;91.40;;;;;;5095112;28;20096;-76
2022/06/12 07:53:34;;;;;;;19.23;2.90;;;20.20;91.20;;;;;;5094786;28;20031;-76
2022/06/12 07:55:59;;;;;;;12.20;2.30;;;20.20;91.10;;;;;;5094863;28;20046;-77
2022/06/12 07:58:25;;;;;;;16.10;3.13;;;20.20;91.10;;;;;;5094819;28;20153;-76
2022/06/12 08:00:57;;;;;;;14.02;2.85;;;20.20;90.90;;;;;;5094502;28;20112;-76
2022/06/12 08:03:23;;;;;;;14.15;3.28;;;20.20;90.90;;;;;;5094385;28;20032;-76
2022/06/12 08:05:49;;;;;;;15.45;2.85;;;20.30;91.00;;;;;;5094822;28;20019;-76
2022/06/12 08:08:15;;;;;;;14.48;2.47;;;20.50;90.90;;;;;;5094721;28;20024;-76
2022/06/12 08:10:41;;;;;;;12.75;2.65;;;20.60;90.70;;;;;;5094645;28;20020;-76
2022/06/12 08:13:10;;;;;;;13.40;2.75;;;20.70;90.40;;;;;;5094519;28;20095;-77
2022/06/12 08:15:37;;;;;;;15.93;3.10;;;20.80;90.10;;;;;;5094152;28;20028;-76
2022/06/12 08:18:04;;;;;;;13.70;2.55;;;20.90;90.10;;;;;;5094304;28;20024;-77
2022/06/12 08:20:32;;;;;;;16.92;2.75;;;21.00;89.50;;;;;;5094546;28;20411;-77
2022/06/12 08:23:04;;;;;;;13.93;2.63;;;20.90;89.00;;;;;;5094383;28;20020;-77
2022/06/12 08:25:34;;;;;;;14.77;2.35;;;20.90;88.50;;;;;;5094176;28;20024;-77
2022/06/12 08:28:01;;;;;;;12.13;2.22;;;20.90;88.20;;;;;;5093864;28;20044;-77
2022/06/12 08:30:27;;;;;;;12.73;2.20;;;20.90;87.30;;;;;;5094436;28;20073;-76
2022/06/12 08:32:55;;;;;;;10.90;2.22;;;20.90;87.40;;;;;;5094330;28;20073;-76
2022/06/12 08:35:28;;;;;;;9.82;2.03;;;20.90;87.50;;;;;;5094148;28;20027;-76
2022/06/12 08:37:54;;;;;;;16.02;3.30;;;21.00;87.60;;;;;;5094122;28;20024;-77
2022/06/12 08:40:35;;;;;;;10.05;1.95;;;21.10;87.20;;;;;;5093637;28;20034;-76
2022/06/12 08:43:31;;;;;;;12.63;2.40;;;21.20;87.20;;;;;;5094188;28;20020;-76
2022/06/12 08:46:05;;;;;;;10.65;1.85;;;21.30;87.40;;;;;;5093770;28;20044;-77
2022/06/12 08:48:39;;;;;;;11.68;2.22;;;21.40;86.10;;;;;;5093930;28;20040;-76
2022/06/12 08:51:29;;;;;;;10.32;2.50;;;21.40;84.20;;;;;;5094080;28;20031;-77
2022/06/12 08:54:01;;;;;;;8.75;1.85;;;21.50;83.50;;;;;;5093634;28;20072;-76
2022/06/12 08:56:38;;;;;;;11.75;1.83;;;21.60;83.90;;;;;;5093512;28;20024;-76
2022/06/12 08:59:20;;;;;;;12.68;2.22;;;21.60;83.90;;;;;;5093582;28;20047;-77
2022/06/12 09:01:45;;;;;;;10.60;1.75;;;21.70;83.90;;;;;;5093884;28;20107;-77
2022/06/12 09:04:17;;;;;;;11.45;2.63;;;21.80;83.30;;;;;;5093516;28;20097;-77
2022/06/12 09:07:05;;;;;;;11.37;1.90;;;21.80;83.20;;;;;;5093396;28;20348;-76
2022/06/12 09:09:37;;;;;;;7.38;1.52;;;21.80;83.00;;;;;;5093201;28;20077;-77
2022/06/12 09:12:38;;;;;;;10.05;1.98;;;21.90;80.60;;;;;;5093482;28;20053;-77
2022/06/12 09:15:13;;;;;;;8.60;1.50;;;21.90;79.70;;;;;;5093587;28;20032;-77
2022/06/12 09:17:57;;;;;;;10.05;1.73;;;22.00;78.30;;;;;;5093331;28;20479;-77
2022/06/12 09:20:36;;;;;;;6.90;1.55;;;22.00;78.40;;;;;;5093392;28;20028;-77
2022/06/12 09:23:12;;;;;;;9.13;1.65;;;22.10;77.40;;;;;;5093718;28;20468;-77
2022/06/12 09:25:47;;;;;;;8.82;1.30;;;22.10;76.60;;;;;;5093680;28;20044;-77
2022/06/12 09:28:37;;;;;;;8.02;1.52;;;22.20;75.70;;;;;;5093178;28;20028;-77
2022/06/12 09:31:06;;;;;;;5.20;1.08;;;22.40;75.90;;;;;;5093479;28;20027;-77
2022/06/12 09:33:38;;;;;;;5.30;1.30;;;22.40;73.60;;;;;;5093530;28;20395;-77
2022/06/12 09:36:30;;;;;;;5.63;1.30;;;22.40;72.20;;;;;;5093020;28;20060;-77
2022/06/12 09:39:10;;;;;;;10.07;1.40;;;22.40;70.20;;;;;;5093483;28;20046;-77
2022/06/12 09:41:44;;;;;;;10.18;1.65;;;22.40;71.30;;;;;;5093076;28;20020;-77
2022/06/12 09:44:18;;;;;;;7.68;1.42;;;22.40;72.80;;;;;;5093052;28;20040;-77
2022/06/12 09:46:51;;;;;;;9.00;2.05;;;22.40;72.60;;;;;;5092820;28;20024;-77
2022/06/12 09:49:29;;;;;;;8.73;1.58;;;22.30;71.50;;;;;;5092977;28;20047;-77
2022/06/12 09:51:57;;;;;;;10.23;1.35;;;22.30;72.30;;;;;;5093337;28;20021;-77
2022/06/12 09:54:32;;;;;;;8.43;1.38;;;22.30;71.10;;;;;;5092725;28;20024;-77
2022/06/12 09:57:24;;;;;;;7.60;1.33;;;22.30;70.40;;;;;;5092718;28;20468;-77
2022/06/12 10:00:18;;;;;;;6.30;1.25;;;22.20;70.80;;;;;;5092997;28;20419;-77
2022/06/12 10:03:06;;;;;;;7.22;1.25;;;22.20;71.20;;;;;;5093071;28;20028;-77
2022/06/12 10:05:40;;;;;;;7.72;1.40;;;22.20;72.40;;;;;;5091915;28;20036;-77
2022/06/12 10:08:13;;;;;;;13.15;2.05;;;22.30;72.00;;;;;;5093088;28;20093;-77
2022/06/12 10:10:46;;;;;;;8.60;1.50;;;22.20;72.10;;;;;;5096309;28;20020;-77
2022/06/12 10:13:18;;;;;;;11.73;2.03;;;22.30;72.60;;;;;;5096481;28;20024;-77
2022/06/12 10:15:50;;;;;;;8.67;1.80;;;22.40;72.70;;;;;;5096472;28;20016;-77
2022/06/12 10:18:48;;;;;;;9.88;1.85;;;22.60;73.40;;;;;;5096762;28;20028;-77
2022/06/12 10:21:21;;;;;;;13.85;2.60;;;22.60;72.80;;;;;;5084624;28;20020;-77
2022/06/12 10:23:48;;;;;;;10.00;1.85;;;22.60;72.90;;;;;;5096307;28;20109;-77
2022/06/12 10:26:24;;;;;;;11.63;2.33;;;22.60;74.00;;;;;;5096254;28;20460;-77
2022/06/12 10:29:13;;;;;;;10.10;1.98;;;22.70;74.10;;;;;;5096290;28;20044;-77
2022/06/12 10:31:55;;;;;;;10.90;2.00;;;22.60;74.40;;;;;;5096586;28;20055;-77
2022/06/12 10:34:24;;;;;;;10.10;1.55;;;22.60;75.40;;;;;;5096326;28;20105;-77
2022/06/12 10:36:50;;;;;;;8.57;1.48;;;22.60;75.20;;;;;;5095769;28;20043;-77
2022/06/12 10:39:17;;;;;;;11.65;2.40;;;22.60;73.80;;;;;;5095864;28;20025;-77
2022/06/12 10:42:03;;;;;;;9.90;1.83;;;22.50;73.70;;;;;;5096392;28;20419;-77
2022/06/12 10:44:29;;;;;;;11.25;2.08;;;22.40;73.60;;;;;;5095999;28;20115;-77
2022/06/12 10:46:55;;;;;;;10.35;2.00;;;22.30;73.80;;;;;;5096342;28;20024;-77
2022/06/12 10:49:23;;;;;;;8.57;1.85;;;22.30;74.10;;;;;;5095348;28;20036;-77
2022/06/12 10:51:50;;;;;;;11.23;2.30;;;22.20;74.60;;;;;;5096208;28;20096;-77
2022/06/12 10:54:19;;;;;;;14.13;1.88;;;22.10;74.30;;;;;;5095820;28;20112;-78
2022/06/12 10:57:03;;;;;;;11.98;2.03;;;22.00;75.40;;;;;;5095542;28;20433;-77
2022/06/12 10:59:37;;;;;;;11.07;2.03;;;21.90;75.80;;;;;;5095764;28;20116;-77
2022/06/12 11:02:06;;;;;;;10.45;1.80;;;21.90;75.80;;;;;;5096044;28;20386;-77
2022/06/12 11:04:41;;;;;;;9.13;1.50;;;21.90;76.30;;;;;;5095869;28;20056;-77
2022/06/12 11:07:06;;;;;;;11.13;2.60;;;21.80;75.50;;;;;;5095841;28;20376;-76
2022/06/12 11:10:01;;;;;;;8.70;1.48;;;21.70;75.60;;;;;;5095458;28;20222;-76
2022/06/12 11:12:55;;;;;;;9.95;2.00;;;21.70;76.40;;;;;;5092736;28;20029;-76
2022/06/12 11:15:45;;;;;;;10.98;1.77;;;21.60;76.90;;;;;;5095666;28;20024;-76
2022/06/12 11:18:28;;;;;;;8.90;1.30;;;21.50;77.10;;;;;;5095454;28;20020;-76
2022/06/12 11:21:20;;;;;;;8.35;1.70;;;21.40;76.50;;;;;;5094375;28;20380;-76
2022/06/12 11:24:09;;;;;;;6.70;1.48;;;21.40;76.70;;;;;;5095263;28;20119;-76
2022/06/12 11:26:37;;;;;;;8.45;1.80;;;21.40;76.40;;;;;;5086825;28;20495;-77
2022/06/12 11:29:33;;;;;;;9.20;1.90;;;21.30;75.70;;;;;;5094904;28;20058;-77
2022/06/12 11:32:17;;;;;;;6.82;1.55;;;21.30;75.10;;;;;;5095147;28;20106;-77
2022/06/12 11:35:18;;;;;;;7.55;1.55;;;21.20;75.90;;;;;;5094975;28;20104;-77
2022/06/12 11:37:46;;;;;;;6.43;1.50;;;21.10;76.30;;;;;;5095317;28;20061;-77
2022/06/12 11:40:40;;;;;;;8.82;1.38;;;21.20;75.70;;;;;;5095007;28;20020;-77
2022/06/12 11:43:25;;;;;;;5.20;1.23;;;21.40;74.80;;;;;;5094618;28;20502;-77
2022/06/12 11:46:11;;;;;;;7.43;1.20;;;21.50;73.70;;;;;;5094633;28;20427;-77
2022/06/12 11:48:54;;;;;;;6.97;2.05;;;21.80;73.10;;;;;;5094938;28;20111;-77
2022/06/12 11:51:42;;;;;;;4.72;1.10;;;22.00;73.60;;;;;;5094581;28;20471;-77
2022/06/12 11:54:30;;;;;;;5.28;1.38;;;22.20;73.50;;;;;;5094284;28;20024;-77
2022/06/12 11:57:10;;;;;;;6.03;1.20;;;22.40;73.20;;;;;;5094693;28;20024;-77
2022/06/12 11:59:54;;;;;;;6.43;1.13;;;22.50;70.30;;;;;;5094824;28;20048;-76
2022/06/12 12:02:44;;;;;;;7.18;1.30;;;22.60;69.80;;;;;;5094360;28;20024;-76
2022/06/12 12:05:46;;;;;;;5.40;1.23;;;22.70;69.00;;;;;;5094498;28;20032;-76
2022/06/12 12:08:14;;;;;;;6.25;1.15;;;22.80;68.70;;;;;;5094766;28;20028;-76
2022/06/12 12:10:48;;;;;;;5.30;1.48;;;22.90;68.20;;;;;;5094256;28;20028;-76
2022/06/12 12:13:41;;;;;;;8.35;1.77;;;23.10;67.30;;;;;;5094006;28;20101;-76
2022/06/12 12:16:48;;;;;;;6.07;1.05;;;23.20;66.00;;;;;;5094543;28;20024;-76
2022/06/12 12:19:23;;;;;;;5.32;1.30;;;23.30;65.30;;;;;;5092548;28;20024;-76
2022/06/12 12:21:59;;;;;;;5.07;1.20;;;23.30;64.30;;;;;;5094027;28;20110;-76
2022/06/12 12:24:38;;;;;;;7.18;1.40;;;23.30;63.80;;;;;;5093932;28;20063;-76
2022/06/12 12:27:11;;;;;;;4.47;1.30;;;23.30;64.20;;;;;;5094109;28;20023;-76
2022/06/12 12:29:38;;;;;;;4.30;0.82;;;23.30;63.50;;;;;;5093872;28;20032;-76
2022/06/12 12:32:08;;;;;;;6.25;1.50;;;23.40;63.50;;;;;;5093900;28;20065;-76
2022/06/12 12:34:34;;;;;;;5.00;0.80;;;23.30;63.10;;;;;;5094063;28;20100;-76
2022/06/12 12:41:11;;;;;;;5.25;0.82;;;23.30;62.60;;;;;;5094151;28;20390;-76
2022/06/12 12:43:03;;;;;;;8.27;1.25;;;23.50;63.50;;;;;;5093773;28;20119;-76
2022/06/12 12:45:37;;;;;;;5.05;0.70;;;23.50;60.70;;;;;;5093718;28;20040;-76
2022/06/12 12:48:06;;;;;;;3.88;0.65;;;23.60;61.60;;;;;;5094042;28;20391;-76
2022/06/12 12:50:46;;;;;;;4.90;0.90;;;23.70;61.00;;;;;;5093602;28;20059;-76
2022/06/12 12:53:26;;;;;;;4.35;0.60;;;23.60;59.30;;;;;;5093540;28;20044;-75
2022/06/12 12:56:13;;;;;;;5.25;0.77;;;23.50;58.90;;;;;;5093865;28;20085;-76
2022/06/12 12:59:00;;;;;;;3.38;0.50;;;23.50;59.50;;;;;;5093780;28;20052;-77
2022/06/12 13:01:35;;;;;;;2.65;0.43;;;23.50;57.10;;;;;;5093622;28;20020;-76
2022/06/12 13:04:21;;;;;;;4.80;0.60;;;23.50;55.50;;;;;;5093389;28;20032;-76
2022/06/12 13:07:09;;;;;;;2.80;0.88;;;23.40;56.50;;;;;;5093868;28;20028;-76
2022/06/12 13:09:58;;;;;;;4.90;0.40;;;23.40;58.00;;;;;;5093534;28;20077;-76
2022/06/12 13:12:51;;;;;;;4.05;0.93;;;23.40;57.50;;;;;;5093600;28;20024;-76
2022/06/12 13:15:44;;;;;;;3.00;0.60;;;23.40;55.30;;;;;;5092893;28;20471;-76
2022/06/12 13:18:43;;;;;;;2.80;0.30;;;23.40;53.50;;;;;;5093536;28;20039;-76
2022/06/12 13:21:39;;;;;;;4.50;0.40;;;23.30;53.00;;;;;;5093161;28;20024;-76
2022/06/12 13:24:28;;;;;;;3.00;0.40;;;23.40;54.20;;;;;;5093545;28;20050;-77
2022/06/12 13:26:55;;;;;;;4.63;0.60;;;23.40;53.20;;;;;;5092950;28;20020;-77
2022/06/12 13:29:23;;;;;;;2.97;0.38;;;23.40;53.70;;;;;;5093155;28;20040;-77
2022/06/12 13:32:41;;;;;;;2.97;0.30;;;23.30;53.80;;;;;;5093334;28;20024;-74